createdAt,value
2019-04-23T00:04:37.101Z,100226.00
2019-04-23T00:09:47.002Z,100222.25
2019-04-23T00:15:04.888Z,100221.50
2019-04-23T00:20:05.748Z,100215.92
2019-04-23T00:25:28.975Z,100215.28
2019-04-23T00:30:11.519Z,100208.98
2019-04-23T00:35:23.675Z,100206.95
2019-04-23T00:40:25.966Z,100202.38
2019-04-23T00:45:34.634Z,100207.52
2019-04-23T00:55:43.069Z,100202.23
2019-04-23T01:00:47.465Z,100201.91
2019-04-23T01:05:46.649Z,100199.53
2019-04-23T01:11:01.865Z,100199.54
2019-04-23T01:16:05.686Z,100193.75
2019-04-23T01:20:54.399Z,100193.17
2019-04-23T01:26:16.584Z,100196.08
2019-04-23T01:31:29.011Z,100188.63
2019-04-23T01:36:34.695Z,100188.13
2019-04-23T01:41:41.175Z,100180.38
2019-04-23T01:46:49.276Z,100171.98
2019-04-23T01:51:54.912Z,100168.91
2019-04-23T01:56:55.005Z,100161.00
2019-04-23T02:02:05.431Z,100165.19
2019-04-23T02:07:06.544Z,100165.67
2019-04-23T02:12:11.492Z,100166.66
2019-04-23T02:17:25.467Z,100159.56
2019-04-23T02:23:04.862Z,100159.41
2019-04-23T02:27:54.392Z,100143.09
2019-04-23T02:33:10.987Z,100136.95
2019-04-23T02:38:13.503Z,100150.14
2019-04-23T02:43:12.671Z,100148.10
2019-04-23T02:53:39.574Z,100134.45
2019-04-23T02:58:46.015Z,100131.27
2019-04-23T03:04:17.467Z,100129.09
2019-04-23T03:08:39.959Z,100128.02
2019-04-23T03:24:25.140Z,100126.80
2019-04-23T03:39:40.105Z,100111.47
2019-04-23T03:44:39.804Z,100111.28
2019-04-23T03:54:45.545Z,100111.19
2019-04-23T03:59:55.107Z,100110.94
2019-04-23T04:04:57.950Z,100107.73
2019-04-23T04:20:19.612Z,100105.82
2019-04-23T04:25:26.005Z,100103.17
2019-04-23T04:30:27.355Z,100118.78
2019-04-23T04:35:23.083Z,100123.25
2019-04-23T04:40:39.164Z,100118.37
2019-04-23T04:55:54.833Z,100125.75
2019-04-23T05:26:25.087Z,100105.73
2019-04-23T05:36:30.785Z,100096.39
2019-04-23T05:41:36.855Z,100101.02
2019-04-23T05:46:52.342Z,100091.72
2019-04-23T05:51:50.968Z,100089.92
2019-04-23T05:57:04.683Z,100099.09
2019-04-23T06:12:06.077Z,100091.83
2019-04-23T06:27:28.973Z,100092.51
2019-04-23T06:32:29.428Z,100084.52
2019-04-23T06:42:37.633Z,100082.66
2019-04-23T06:47:43.050Z,100074.78
2019-04-23T06:52:48.527Z,100069.23
2019-04-23T06:57:58.764Z,100069.42
2019-04-23T07:03:00.903Z,100072.11
2019-04-23T07:08:05.899Z,100062.09
2019-04-23T07:13:10.938Z,100065.14
2019-04-23T07:18:16.295Z,100056.98
2019-04-23T07:23:35.691Z,100053.56
2019-04-23T07:28:32.549Z,100059.98
2019-04-23T07:33:35.098Z,100072.64
2019-04-23T07:39:01.595Z,100048.92
2019-04-23T07:44:06.280Z,100046.49
2019-04-23T07:49:02.912Z,100048.77
2019-04-23T07:54:19.362Z,100042.70
2019-04-23T07:59:22.753Z,100044.32
2019-04-23T08:04:30.197Z,100040.55
2019-04-23T08:09:33.854Z,100045.62
2019-04-23T08:14:32.685Z,100029.81
2019-04-23T08:19:49.853Z,100026.54
2019-04-23T08:24:51.052Z,100018.39
2019-04-23T08:29:43.948Z,100034.48
2019-04-23T08:34:58.619Z,100024.11
2019-04-23T08:40:04.297Z,100014.50
2019-04-23T08:45:31.385Z,100014.65
2019-04-23T08:50:29.701Z,100002.77
2019-04-23T08:55:38.757Z,100010.45
2019-04-23T09:00:49.885Z,100014.86
2019-04-23T09:10:58.073Z,100010.04
2019-04-23T09:15:56.199Z,100001.19
2019-04-23T09:21:05.846Z,100006.23
2019-04-23T09:26:02.398Z,99995.20
2019-04-23T09:31:42.016Z,100012.53
2019-04-23T09:36:40.613Z,100003.34
2019-04-23T09:42:04.793Z,100014.20
2019-04-23T09:47:14.012Z,100003.98
2019-04-23T09:57:17.156Z,99996.39
2019-04-23T10:02:20.167Z,99994.55
2019-04-23T10:07:17.957Z,100000.86
2019-04-23T10:12:11.539Z,99986.86
2019-04-23T10:17:16.076Z,99972.44
2019-04-23T10:22:19.977Z,99971.56
2019-04-23T10:27:25.153Z,99983.60
2019-04-23T10:32:29.814Z,99975.55
2019-04-23T10:37:46.097Z,99949.88
2019-04-23T10:42:43.243Z,99962.65
2019-04-23T10:53:30.003Z,99958.43
2019-04-23T10:58:36.482Z,99965.63
2019-04-23T11:04:00.428Z,99953.30
2019-04-23T11:08:44.018Z,99952.30
2019-04-23T11:14:04.911Z,99945.00
2019-04-23T11:19:10.566Z,99931.33
2019-04-23T11:24:20.772Z,99941.33
2019-04-23T11:29:23.109Z,99941.14
2019-04-23T11:34:34.181Z,99950.36
2019-04-23T11:39:32.646Z,99932.14
2019-04-23T11:44:36.770Z,99935.20
2019-04-23T11:54:43.562Z,99937.84
2019-04-23T12:00:02.094Z,99933.05
2019-04-23T12:15:25.269Z,99906.33
2019-04-23T12:20:26.839Z,99921.38
2019-04-23T12:30:39.427Z,99920.13
2019-04-23T12:35:35.512Z,99906.31
2019-04-23T12:40:43.195Z,99901.82
2019-04-23T12:46:02.127Z,99901.77
2019-04-23T12:56:06.864Z,99896.77
2019-04-23T13:01:05.254Z,99883.36
2019-04-23T13:06:08.081Z,99885.13
2019-04-23T13:11:21.534Z,99885.30
2019-04-23T13:16:25.374Z,99873.36
2019-04-23T13:26:30.894Z,99855.97
2019-04-23T13:31:34.642Z,99848.45
2019-04-23T13:36:46.895Z,99841.78
2019-04-23T13:41:48.256Z,99833.86
2019-04-23T13:47:02.931Z,99841.37
2019-04-23T13:52:12.788Z,99839.59
2019-04-23T13:57:34.775Z,99840.46
2019-04-23T14:02:23.440Z,99857.30
2019-04-23T14:07:23.311Z,99852.84
2019-04-23T14:12:26.090Z,99850.95
2019-04-23T14:17:38.071Z,99849.36
2019-04-23T14:23:00.364Z,99856.34
2019-04-23T14:28:08.094Z,99842.98
2019-04-23T14:32:49.874Z,99840.73
2019-04-23T14:38:09.485Z,99848.67
2019-04-23T14:43:10.939Z,99849.97
2019-04-23T14:48:08.896Z,99833.73
2019-04-23T14:53:12.613Z,99831.83
2019-04-23T14:58:20.621Z,99839.23
2019-04-23T15:13:28.027Z,99823.92
2019-04-23T15:28:35.838Z,99823.73
2019-04-23T15:34:07.549Z,99827.77
2019-04-23T15:39:40.629Z,99831.27
2019-04-23T15:44:19.302Z,99831.82
2019-04-23T15:59:43.946Z,99833.34
2019-04-23T16:04:03.506Z,99833.20
2019-04-23T16:09:26.145Z,99833.89
2019-04-23T16:15:00.247Z,99839.28
2019-04-23T16:30:28.730Z,99856.75
2019-04-23T16:40:28.346Z,99865.52
2019-04-23T16:50:57.865Z,99862.32
2019-04-23T17:01:02.530Z,99869.77
2019-04-23T17:05:57.248Z,99873.13
2019-04-23T17:11:10.061Z,99872.31
2019-04-23T17:21:23.298Z,99877.44
2019-04-23T17:26:19.113Z,99870.89
2019-04-23T17:31:30.836Z,99872.80
2019-04-23T17:36:34.877Z,99866.20
2019-04-23T17:42:00.147Z,99860.99
2019-04-23T17:47:02.750Z,99859.73
2019-04-23T17:52:07.095Z,99858.77
2019-04-23T17:57:07.573Z,99871.45
2019-04-23T18:02:39.928Z,99868.66
2019-04-23T18:07:36.287Z,99869.22
2019-04-23T18:12:36.788Z,99866.92
2019-04-23T18:17:41.310Z,99880.72
2019-04-23T18:22:42.255Z,99886.42
2019-04-23T18:27:48.256Z,99885.08
2019-04-23T18:33:37.985Z,99894.30
2019-04-23T18:38:12.564Z,99900.48
2019-04-23T18:43:20.198Z,99905.80
2019-04-23T18:53:43.662Z,99911.10
2019-04-23T19:03:57.465Z,99918.11
2019-04-23T19:14:12.717Z,99932.39
2019-04-23T19:19:23.639Z,99923.94
2019-04-23T19:24:22.111Z,99934.41
2019-04-23T19:29:39.611Z,99946.94
2019-04-23T19:34:35.660Z,99945.03
2019-04-23T19:39:48.387Z,99935.73
2019-04-23T19:49:51.299Z,99953.55
2019-04-23T19:54:55.415Z,99950.87
2019-04-23T19:59:55.267Z,99953.09
2019-04-23T20:05:06.331Z,99944.69
2019-04-23T20:10:03.650Z,99944.69
2019-04-23T20:15:08.278Z,99938.55
2019-04-23T20:20:19.137Z,99929.38
2019-04-23T20:25:56.475Z,99934.16
2019-04-23T20:31:50.498Z,99943.53
2019-04-23T20:35:58.297Z,99937.46
2019-04-23T20:41:05.749Z,99929.77
2019-04-23T20:46:14.306Z,99939.61
2019-04-23T20:51:24.672Z,99928.87
2019-04-23T20:56:36.563Z,99935.62
2019-04-23T21:02:03.264Z,99933.73
2019-04-23T21:07:03.216Z,99931.09
2019-04-23T21:17:04.091Z,99923.66
2019-04-23T21:27:35.489Z,99915.48
2019-04-23T21:32:33.430Z,99920.73
2019-04-23T21:37:39.301Z,99916.79
2019-04-23T21:42:55.971Z,99913.09
2019-04-23T21:48:01.650Z,99914.55
2019-04-23T21:52:58.202Z,99912.03
2019-04-23T21:58:18.982Z,99903.00
2019-04-23T22:03:19.688Z,99896.70
2019-04-23T22:08:35.474Z,99897.95
2019-04-23T22:13:29.515Z,99882.61
2019-04-23T22:18:38.062Z,99877.86
2019-04-23T22:23:40.682Z,99876.21
2019-04-23T22:28:48.938Z,99870.08
2019-04-23T22:34:00.348Z,99854.72
2019-04-23T22:38:49.285Z,99862.05
2019-04-23T22:49:18.003Z,99856.19
2019-04-23T23:04:20.211Z,99830.91
2019-04-23T23:09:28.747Z,99836.41
2019-04-23T23:14:28.011Z,99820.89
2019-04-23T23:19:38.986Z,99827.30
2019-04-23T23:24:53.735Z,99808.05
2019-04-23T23:29:58.137Z,99819.17
2019-04-23T23:35:07.898Z,99821.11
2019-04-23T23:40:04.728Z,99809.75
2019-04-23T23:45:12.424Z,99812.91
2019-04-23T23:55:16.080Z,99804.16
